sensor_id;sensor_type;location;lat;lon;timestamp;noise_LAeq;noise_LA_min;noise_LA_max;noise_LA01;noise_LA95
47923;Laerm;33688;44.354;9.228;2024-03-23T00:54:56;35.70;35.03;36.73;;
47923;Laerm;33688;44.354;9.228;2024-03-23T00:57:21;35.69;35.00;36.84;;
47923;Laerm;33688;44.354;9.228;2024-03-23T00:59:47;35.70;35.05;36.60;;
47923;Laerm;33688;44.354;9.228;2024-03-23T01:02:13;35.69;34.99;36.57;;
47923;Laerm;33688;44.354;9.228;2024-03-23T01:04:39;35.70;35.05;36.52;;
47923;Laerm;33688;44.354;9.228;2024-03-23T01:07:05;35.71;35.09;36.66;;
47923;Laerm;33688;44.354;9.228;2024-03-23T01:09:30;35.71;34.97;36.99;;
47923;Laerm;33688;44.354;9.228;2024-03-23T01:11:56;35.71;35.04;38.12;;
47923;Laerm;33688;44.354;9.228;2024-03-23T01:14:22;35.70;35.07;36.60;;
47923;Laerm;33688;44.354;9.228;2024-03-23T01:16:48;35.71;34.88;36.58;;
47923;Laerm;33688;44.354;9.228;2024-03-23T01:19:14;36.00;34.95;45.51;;
47923;Laerm;33688;44.354;9.228;2024-03-23T01:21:40;35.71;34.89;36.56;;
47923;Laerm;33688;44.354;9.228;2024-03-23T01:24:07;35.73;34.99;39.48;;
47923;Laerm;33688;44.354;9.228;2024-03-23T01:26:35;35.70;34.94;36.69;;
47923;Laerm;33688;44.354;9.228;2024-03-23T01:29:01;35.70;34.91;36.48;;
47923;Laerm;33688;44.354;9.228;2024-03-23T01:31:26;35.70;34.98;36.49;;
47923;Laerm;33688;44.354;9.228;2024-03-23T01:33:53;35.68;34.99;36.53;;
47923;Laerm;33688;44.354;9.228;2024-03-23T01:36:19;35.68;34.99;36.60;;
47923;Laerm;33688;44.354;9.228;2024-03-23T01:38:45;35.69;34.96;36.54;;
47923;Laerm;33688;44.354;9.228;2024-03-23T01:41:11;35.68;34.68;36.72;;
47923;Laerm;33688;44.354;9.228;2024-03-23T01:43:38;35.69;35.10;36.63;;
47923;Laerm;33688;44.354;9.228;2024-03-23T01:46:03;35.68;34.75;36.59;;
47923;Laerm;33688;44.354;9.228;2024-03-23T01:48:29;35.70;34.99;36.51;;
47923;Laerm;33688;44.354;9.228;2024-03-23T01:50:55;35.68;34.80;36.67;;
47923;Laerm;33688;44.354;9.228;2024-03-23T01:53:20;35.68;34.96;36.84;;
47923;Laerm;33688;44.354;9.228;2024-03-23T01:55:50;35.68;34.92;36.57;;
47923;Laerm;33688;44.354;9.228;2024-03-23T01:58:16;35.70;35.00;36.78;;
47923;Laerm;33688;44.354;9.228;2024-03-23T02:00:42;35.69;34.94;40.72;;
47923;Laerm;33688;44.354;9.228;2024-03-23T02:03:34;35.68;34.94;36.77;;
47923;Laerm;33688;44.354;9.228;2024-03-23T02:06:00;35.69;34.98;36.68;;
47923;Laerm;33688;44.354;9.228;2024-03-23T02:08:26;35.70;34.92;36.58;;
47923;Laerm;33688;44.354;9.228;2024-03-23T02:10:52;35.71;35.02;36.75;;
47923;Laerm;33688;44.354;9.228;2024-03-23T02:13:18;35.71;35.07;36.53;;
47923;Laerm;33688;44.354;9.228;2024-03-23T02:15:44;35.72;35.04;36.72;;
47923;Laerm;33688;44.354;9.228;2024-03-23T02:18:11;35.71;35.02;36.54;;
47923;Laerm;33688;44.354;9.228;2024-03-23T02:20:37;35.71;34.97;36.72;;
47923;Laerm;33688;44.354;9.228;2024-03-23T02:23:04;35.71;34.98;36.49;;
47923;Laerm;33688;44.354;9.228;2024-03-23T02:25:33;35.71;35.05;36.65;;
47923;Laerm;33688;44.354;9.228;2024-03-23T02:27:59;35.73;34.90;37.91;;
47923;Laerm;33688;44.354;9.228;2024-03-23T02:30:28;35.97;34.91;44.39;;
47923;Laerm;33688;44.354;9.228;2024-03-23T02:32:54;35.73;35.09;39.92;;
47923;Laerm;33688;44.354;9.228;2024-03-23T02:35:19;35.77;35.00;41.47;;
47923;Laerm;33688;44.354;9.228;2024-03-23T02:37:47;35.75;35.00;38.88;;
47923;Laerm;33688;44.354;9.228;2024-03-23T02:40:17;35.72;34.98;36.72;;
47923;Laerm;33688;44.354;9.228;2024-03-23T02:42:44;35.72;34.95;36.70;;
47923;Laerm;33688;44.354;9.228;2024-03-23T02:45:09;35.75;34.83;36.70;;
47923;Laerm;33688;44.354;9.228;2024-03-23T02:47:36;35.83;34.87;47.10;;
47923;Laerm;33688;44.354;9.228;2024-03-23T02:50:01;35.73;34.88;42.05;;
47923;Laerm;33688;44.354;9.228;2024-03-23T02:52:27;36.45;34.81;42.09;;
47923;Laerm;33688;44.354;9.228;2024-03-23T02:54:53;35.71;34.93;39.12;;
47923;Laerm;33688;44.354;9.228;2024-03-23T02:57:19;35.70;35.01;36.76;;
47923;Laerm;33688;44.354;9.228;2024-03-23T02:59:45;35.70;35.01;38.93;;
47923;Laerm;33688;44.354;9.228;2024-03-23T03:02:12;36.22;34.81;51.08;;
47923;Laerm;33688;44.354;9.228;2024-03-23T03:04:40;35.69;35.01;36.73;;
47923;Laerm;33688;44.354;9.228;2024-03-23T03:07:05;35.71;35.02;37.51;;
47923;Laerm;33688;44.354;9.228;2024-03-23T03:09:31;35.70;34.89;36.55;;
47923;Laerm;33688;44.354;9.228;2024-03-23T03:11:58;35.70;35.00;36.64;;
47923;Laerm;33688;44.354;9.228;2024-03-23T03:14:24;35.71;35.04;36.51;;
47923;Laerm;33688;44.354;9.228;2024-03-23T03:16:50;35.70;35.02;36.70;;
47923;Laerm;33688;44.354;9.228;2024-03-23T03:19:15;35.71;35.04;36.75;;
47923;Laerm;33688;44.354;9.228;2024-03-23T03:21:43;35.71;34.99;36.64;;
47923;Laerm;33688;44.354;9.228;2024-03-23T03:24:09;35.70;35.01;36.49;;
47923;Laerm;33688;44.354;9.228;2024-03-23T03:26:35;35.66;34.66;36.54;;
47923;Laerm;33688;44.354;9.228;2024-03-23T03:29:02;35.67;35.02;36.55;;
47923;Laerm;33688;44.354;9.228;2024-03-23T03:31:27;35.68;34.95;36.53;;
47923;Laerm;33688;44.354;9.228;2024-03-23T03:33:53;35.69;34.97;36.65;;
47923;Laerm;33688;44.354;9.228;2024-03-23T03:36:19;35.68;34.94;36.60;;
47923;Laerm;33688;44.354;9.228;2024-03-23T03:38:45;35.70;34.98;36.54;;
47923;Laerm;33688;44.354;9.228;2024-03-23T03:41:11;35.69;34.92;36.76;;
47923;Laerm;33688;44.354;9.228;2024-03-23T03:43:38;35.69;35.09;36.49;;
47923;Laerm;33688;44.354;9.228;2024-03-23T03:46:04;35.69;34.91;36.54;;
47923;Laerm;33688;44.354;9.228;2024-03-23T03:48:30;35.68;34.92;36.62;;
47923;Laerm;33688;44.354;9.228;2024-03-23T03:50:55;35.69;34.93;36.52;;
47923;Laerm;33688;44.354;9.228;2024-03-23T03:53:21;35.70;35.09;36.62;;
47923;Laerm;33688;44.354;9.228;2024-03-23T03:55:47;35.69;34.86;36.49;;
47923;Laerm;33688;44.354;9.228;2024-03-23T03:58:13;35.71;34.87;36.62;;
47923;Laerm;33688;44.354;9.228;2024-03-23T04:00:38;35.69;34.99;36.68;;
47923;Laerm;33688;44.354;9.228;2024-03-23T04:03:05;35.69;34.96;36.60;;
47923;Laerm;33688;44.354;9.228;2024-03-23T04:05:31;35.70;34.92;36.76;;
47923;Laerm;33688;44.354;9.228;2024-03-23T04:07:57;35.69;34.96;36.65;;
47923;Laerm;33688;44.354;9.228;2024-03-23T04:10:23;35.70;35.03;36.72;;
47923;Laerm;33688;44.354;9.228;2024-03-23T04:12:48;35.70;34.92;36.51;;
47923;Laerm;33688;44.354;9.228;2024-03-23T04:15:14;35.70;34.97;36.70;;
47923;Laerm;33688;44.354;9.228;2024-03-23T04:17:40;35.81;34.85;48.66;;
47923;Laerm;33688;44.354;9.228;2024-03-23T04:20:08;35.72;34.99;38.14;;
47923;Laerm;33688;44.354;9.228;2024-03-23T04:22:40;35.69;34.98;36.54;;
47923;Laerm;33688;44.354;9.228;2024-03-23T04:25:06;35.69;34.79;36.59;;
47923;Laerm;33688;44.354;9.228;2024-03-23T04:27:38;35.70;34.85;36.77;;
47923;Laerm;33688;44.354;9.228;2024-03-23T04:30:07;35.69;34.94;36.78;;
47923;Laerm;33688;44.354;9.228;2024-03-23T04:32:37;35.69;34.96;36.70;;
47923;Laerm;33688;44.354;9.228;2024-03-23T04:35:05;35.71;34.91;36.50;;
47923;Laerm;33688;44.354;9.228;2024-03-23T04:37:37;35.70;34.89;36.80;;
47923;Laerm;33688;44.354;9.228;2024-03-23T04:40:06;35.69;34.99;36.59;;
47923;Laerm;33688;44.354;9.228;2024-03-23T04:42:33;35.69;34.76;36.71;;
47923;Laerm;33688;44.354;9.228;2024-03-23T04:45:00;35.70;35.05;38.20;;
47923;Laerm;33688;44.354;9.228;2024-03-23T04:47:25;35.76;35.03;37.04;;
47923;Laerm;33688;44.354;9.228;2024-03-23T04:49:53;35.78;35.02;37.37;;
47923;Laerm;33688;44.354;9.228;2024-03-23T04:52:19;35.69;35.09;36.62;;
47923;Laerm;33688;44.354;9.228;2024-03-23T04:54:44;35.70;34.94;36.52;;
47923;Laerm;33688;44.354;9.228;2024-03-23T04:57:13;35.69;34.92;36.71;;
47923;Laerm;33688;44.354;9.228;2024-03-23T04:59:47;35.69;34.96;36.60;;
47923;Laerm;33688;44.354;9.228;2024-03-23T05:02:14;35.86;35.02;49.24;;
47923;Laerm;33688;44.354;9.228;2024-03-23T05:04:41;35.70;34.98;40.33;;
47923;Laerm;33688;44.354;9.228;2024-03-23T05:07:08;35.73;35.05;45.33;;
47923;Laerm;33688;44.354;9.228;2024-03-23T05:09:34;35.70;35.03;36.50;;
47923;Laerm;33688;44.354;9.228;2024-03-23T05:12:00;35.70;34.93;39.27;;
47923;Laerm;33688;44.354;9.228;2024-03-23T05:14:26;35.69;34.88;38.61;;
47923;Laerm;33688;44.354;9.228;2024-03-23T05:16:53;35.68;34.85;36.63;;
47923;Laerm;33688;44.354;9.228;2024-03-23T05:19:19;35.68;34.93;36.63;;
47923;Laerm;33688;44.354;9.228;2024-03-23T05:21:44;35.69;35.07;36.64;;
47923;Laerm;33688;44.354;9.228;2024-03-23T05:24:11;35.70;34.94;36.58;;
47923;Laerm;33688;44.354;9.228;2024-03-23T05:26:38;35.67;35.05;36.61;;
47923;Laerm;33688;44.354;9.228;2024-03-23T05:29:03;35.68;34.89;36.69;;
47923;Laerm;33688;44.354;9.228;2024-03-23T05:31:31;35.68;34.96;36.46;;
47923;Laerm;33688;44.354;9.228;2024-03-23T05:33:57;35.87;34.96;44.41;;
47923;Laerm;33688;44.354;9.228;2024-03-23T05:36:23;35.69;34.99;36.54;;
47923;Laerm;33688;44.354;9.228;2024-03-23T05:38:51;35.68;34.73;36.57;;
47923;Laerm;33688;44.354;9.228;2024-03-23T05:41:17;35.70;35.03;36.55;;
47923;Laerm;33688;44.354;9.228;2024-03-23T05:43:42;35.69;35.00;36.57;;
47923;Laerm;33688;44.354;9.228;2024-03-23T05:46:08;36.04;35.03;44.15;;
47923;Laerm;33688;44.354;9.228;2024-03-23T05:48:34;35.91;34.90;38.46;;
47923;Laerm;33688;44.354;9.228;2024-03-23T05:51:00;36.15;34.86;41.21;;
47923;Laerm;33688;44.354;9.228;2024-03-23T05:53:26;35.69;34.88;36.68;;
47923;Laerm;33688;44.354;9.228;2024-03-23T05:56:01;35.70;35.05;36.42;;
47923;Laerm;33688;44.354;9.228;2024-03-23T05:58:30;35.70;35.06;37.28;;
47923;Laerm;33688;44.354;9.228;2024-03-23T06:01:01;35.69;35.06;36.68;;
47923;Laerm;33688;44.354;9.228;2024-03-23T06:03:28;35.69;35.02;36.50;;
47923;Laerm;33688;44.354;9.228;2024-03-23T06:05:54;35.70;34.86;36.76;;
47923;Laerm;33688;44.354;9.228;2024-03-23T06:08:20;35.69;35.03;36.55;;
47923;Laerm;33688;44.354;9.228;2024-03-23T06:10:46;35.71;34.97;36.69;;
47923;Laerm;33688;44.354;9.228;2024-03-23T06:13:13;35.69;35.02;36.66;;
47923;Laerm;33688;44.354;9.228;2024-03-23T06:15:40;35.68;35.01;36.65;;
47923;Laerm;33688;44.354;9.228;2024-03-23T06:18:06;35.70;34.93;36.63;;
47923;Laerm;33688;44.354;9.228;2024-03-23T06:20:34;35.71;35.04;36.55;;
47923;Laerm;33688;44.354;9.228;2024-03-23T06:23:03;35.70;35.09;36.54;;
47923;Laerm;33688;44.354;9.228;2024-03-23T06:25:29;35.69;34.94;36.50;;
47923;Laerm;33688;44.354;9.228;2024-03-23T06:27:55;35.69;34.97;36.52;;
47923;Laerm;33688;44.354;9.228;2024-03-23T06:30:21;35.73;35.04;37.15;;
47923;Laerm;33688;44.354;9.228;2024-03-23T06:32:47;35.72;35.01;37.01;;
47923;Laerm;33688;44.354;9.228;2024-03-23T06:35:13;35.69;34.91;36.61;;
47923;Laerm;33688;44.354;9.228;2024-03-23T06:37:40;35.71;34.98;38.48;;
47923;Laerm;33688;44.354;9.228;2024-03-23T06:40:08;36.29;35.06;45.88;;
47923;Laerm;33688;44.354;9.228;2024-03-23T06:42:36;36.49;35.03;45.82;;
47923;Laerm;33688;44.354;9.228;2024-03-23T06:45:03;35.69;35.06;37.59;;
47923;Laerm;33688;44.354;9.228;2024-03-23T06:47:31;35.69;34.69;36.65;;
47923;Laerm;33688;44.354;9.228;2024-03-23T06:49:58;35.73;34.97;39.60;;
47923;Laerm;33688;44.354;9.228;2024-03-23T06:52:24;35.71;35.00;36.68;;
47923;Laerm;33688;44.354;9.228;2024-03-23T06:54:50;35.68;34.82;36.71;;
47923;Laerm;33688;44.354;9.228;2024-03-23T06:57:15;35.79;34.96;37.52;;
47923;Laerm;33688;44.354;9.228;2024-03-23T06:59:42;35.70;34.93;37.15;;
47923;Laerm;33688;44.354;9.228;2024-03-23T07:02:09;36.67;34.85;45.64;;
47923;Laerm;33688;44.354;9.228;2024-03-23T07:04:36;35.73;34.95;38.12;;
47923;Laerm;33688;44.354;9.228;2024-03-23T07:07:02;35.70;35.02;37.12;;
47923;Laerm;33688;44.354;9.228;2024-03-23T07:09:29;35.70;34.99;36.68;;
47923;Laerm;33688;44.354;9.228;2024-03-23T07:11:56;35.68;35.08;36.60;;
47923;Laerm;33688;44.354;9.228;2024-03-23T07:14:23;35.71;35.07;37.02;;
47923;Laerm;33688;44.354;9.228;2024-03-23T07:16:50;36.08;34.97;49.32;;
47923;Laerm;33688;44.354;9.228;2024-03-23T07:19:17;35.72;34.96;36.69;;
47923;Laerm;33688;44.354;9.228;2024-03-23T07:21:46;35.69;34.96;36.63;;
47923;Laerm;33688;44.354;9.228;2024-03-23T07:24:13;35.68;34.94;37.44;;
47923;Laerm;33688;44.354;9.228;2024-03-23T07:26:40;35.73;35.01;40.31;;
47923;Laerm;33688;44.354;9.228;2024-03-23T07:29:07;35.72;34.76;37.91;;
47923;Laerm;33688;44.354;9.228;2024-03-23T07:31:33;35.70;35.01;37.10;;
47923;Laerm;33688;44.354;9.228;2024-03-23T07:33:59;35.69;35.02;36.66;;
47923;Laerm;33688;44.354;9.228;2024-03-23T07:36:24;35.71;34.99;37.75;;
47923;Laerm;33688;44.354;9.228;2024-03-23T07:38:51;35.70;34.99;37.41;;
47923;Laerm;33688;44.354;9.228;2024-03-23T07:41:18;35.72;34.98;40.78;;
47923;Laerm;33688;44.354;9.228;2024-03-23T07:43:48;35.73;34.93;43.03;;
47923;Laerm;33688;44.354;9.228;2024-03-23T07:46:15;35.69;34.99;36.57;;
47923;Laerm;33688;44.354;9.228;2024-03-23T07:48:41;35.76;35.07;36.94;;
47923;Laerm;33688;44.354;9.228;2024-03-23T07:51:11;35.72;35.06;37.64;;
47923;Laerm;33688;44.354;9.228;2024-03-23T07:53:55;35.69;34.92;36.79;;
47923;Laerm;33688;44.354;9.228;2024-03-23T07:56:21;35.70;35.02;36.63;;
47923;Laerm;33688;44.354;9.228;2024-03-23T07:58:49;35.67;34.80;36.70;;
47923;Laerm;33688;44.354;9.228;2024-03-23T08:01:17;35.70;34.94;36.78;;
47923;Laerm;33688;44.354;9.228;2024-03-23T08:03:45;35.69;34.93;36.98;;
47923;Laerm;33688;44.354;9.228;2024-03-23T08:06:33;35.69;34.88;36.68;;
47923;Laerm;33688;44.354;9.228;2024-03-23T08:08:59;35.69;34.91;37.17;;
47923;Laerm;33688;44.354;9.228;2024-03-23T08:11:28;35.70;35.00;36.56;;
47923;Laerm;33688;44.354;9.228;2024-03-23T08:13:55;35.70;34.97;38.77;;
47923;Laerm;33688;44.354;9.228;2024-03-23T08:16:23;35.70;34.92;36.68;;
47923;Laerm;33688;44.354;9.228;2024-03-23T08:18:51;35.69;35.02;36.66;;
47923;Laerm;33688;44.354;9.228;2024-03-23T08:21:18;35.67;34.87;36.55;;
47923;Laerm;33688;44.354;9.228;2024-03-23T08:23:44;35.73;34.91;43.56;;
47923;Laerm;33688;44.354;9.228;2024-03-23T08:26:12;35.69;35.02;36.52;;
47923;Laerm;33688;44.354;9.228;2024-03-23T08:28:41;35.69;34.98;36.62;;
47923;Laerm;33688;44.354;9.228;2024-03-23T08:31:09;35.69;34.95;36.53;;
47923;Laerm;33688;44.354;9.228;2024-03-23T08:33:38;35.71;34.92;38.70;;
47923;Laerm;33688;44.354;9.228;2024-03-23T08:36:10;35.70;35.07;36.61;;
47923;Laerm;33688;44.354;9.228;2024-03-23T08:38:38;35.70;34.71;36.66;;
47923;Laerm;33688;44.354;9.228;2024-03-23T08:41:06;35.82;34.67;40.26;;
47923;Laerm;33688;44.354;9.228;2024-03-23T08:43:39;35.69;34.95;36.56;;
47923;Laerm;33688;44.354;9.228;2024-03-23T08:46:07;35.74;35.07;38.92;;
47923;Laerm;33688;44.354;9.228;2024-03-23T08:48:35;35.72;35.06;37.03;;
47923;Laerm;33688;44.354;9.228;2024-03-23T08:51:05;35.73;34.89;36.67;;
47923;Laerm;33688;44.354;9.228;2024-03-23T08:53:31;35.70;34.85;36.84;;
47923;Laerm;33688;44.354;9.228;2024-03-23T08:55:59;35.71;34.87;36.91;;
47923;Laerm;33688;44.354;9.228;2024-03-23T08:58:27;35.69;34.88;37.17;;
47923;Laerm;33688;44.354;9.228;2024-03-23T09:00:54;35.72;34.88;37.43;;
47923;Laerm;33688;44.354;9.228;2024-03-23T09:03:26;35.70;35.01;37.10;;
47923;Laerm;33688;44.354;9.228;2024-03-23T09:05:52;35.73;35.05;38.10;;
47923;Laerm;33688;44.354;9.228;2024-03-23T09:08:18;35.74;34.93;38.11;;
47923;Laerm;33688;44.354;9.228;2024-03-23T09:10:44;40.96;35.20;43.10;;
47923;Laerm;33688;44.354;9.228;2024-03-23T09:13:10;41.89;40.64;42.89;;
47923;Laerm;33688;44.354;9.228;2024-03-23T09:15:45;42.26;40.85;59.44;;
47923;Laerm;33688;44.354;9.228;2024-03-23T09:18:11;41.66;40.45;43.58;;
47923;Laerm;33688;44.354;9.228;2024-03-23T09:20:37;41.81;40.75;43.56;;
47923;Laerm;33688;44.354;9.228;2024-03-23T09:23:04;42.19;40.65;44.61;;
47923;Laerm;33688;44.354;9.228;2024-03-23T09:25:37;42.40;40.27;50.16;;
47923;Laerm;33688;44.354;9.228;2024-03-23T09:28:04;42.09;39.98;50.36;;
47923;Laerm;33688;44.354;9.228;2024-03-23T09:30:31;41.81;40.08;43.11;;
47923;Laerm;33688;44.354;9.228;2024-03-23T09:32:57;41.63;39.94;42.99;;
47923;Laerm;33688;44.354;9.228;2024-03-23T09:35:23;41.24;39.40;42.95;;
47923;Laerm;33688;44.354;9.228;2024-03-23T09:37:48;40.90;39.62;42.70;;
47923;Laerm;33688;44.354;9.228;2024-03-23T09:40:14;40.85;39.40;42.44;;
47923;Laerm;33688;44.354;9.228;2024-03-23T09:42:42;40.84;39.38;42.45;;
47923;Laerm;33688;44.354;9.228;2024-03-23T09:45:20;40.73;39.54;42.55;;
47923;Laerm;33688;44.354;9.228;2024-03-23T09:47:47;40.92;39.62;42.72;;
47923;Laerm;33688;44.354;9.228;2024-03-23T09:50:15;41.40;39.56;58.15;;
47923;Laerm;33688;44.354;9.228;2024-03-23T09:52:42;40.88;39.49;44.08;;
47923;Laerm;33688;44.354;9.228;2024-03-23T09:55:08;40.96;39.58;42.57;;
47923;Laerm;33688;44.354;9.228;2024-03-23T09:57:35;41.03;39.57;42.93;;
47923;Laerm;33688;44.354;9.228;2024-03-23T10:00:03;41.09;39.70;43.07;;
47923;Laerm;33688;44.354;9.228;2024-03-23T10:02:34;41.51;39.62;45.18;;
47923;Laerm;33688;44.354;9.228;2024-03-23T10:05:00;41.25;39.87;47.48;;
47923;Laerm;33688;44.354;9.228;2024-03-23T10:07:46;41.02;39.76;46.98;;
47923;Laerm;33688;44.354;9.228;2024-03-23T10:10:11;40.94;39.84;47.65;;
47923;Laerm;33688;44.354;9.228;2024-03-23T10:12:45;40.82;39.78;42.63;;
47923;Laerm;33688;44.354;9.228;2024-03-23T10:15:19;40.86;39.84;43.36;;
47923;Laerm;33688;44.354;9.228;2024-03-23T10:17:45;40.96;39.56;47.49;;
47923;Laerm;33688;44.354;9.228;2024-03-23T10:20:11;40.89;39.71;43.06;;
47923;Laerm;33688;44.354;9.228;2024-03-23T10:22:38;41.07;39.55;56.18;;
47923;Laerm;33688;44.354;9.228;2024-03-23T10:25:10;41.02;39.76;44.82;;
47923;Laerm;33688;44.354;9.228;2024-03-23T10:27:37;41.38;39.71;58.33;;
47923;Laerm;33688;44.354;9.228;2024-03-23T10:30:10;41.16;39.87;49.66;;
47923;Laerm;33688;44.354;9.228;2024-03-23T10:32:37;41.40;39.82;54.36;;
47923;Laerm;33688;44.354;9.228;2024-03-23T10:35:20;42.92;39.79;65.83;;
47923;Laerm;33688;44.354;9.228;2024-03-23T10:37:50;41.25;39.78;49.64;;
47923;Laerm;33688;44.354;9.228;2024-03-23T10:40:17;41.25;39.77;53.42;;
47923;Laerm;33688;44.354;9.228;2024-03-23T10:42:44;41.12;40.06;42.28;;
47923;Laerm;33688;44.354;9.228;2024-03-23T10:45:10;41.10;39.77;42.22;;
47923;Laerm;33688;44.354;9.228;2024-03-23T10:47:39;41.14;39.95;43.00;;
47923;Laerm;33688;44.354;9.228;2024-03-23T10:50:06;42.71;39.75;57.98;;
47923;Laerm;33688;44.354;9.228;2024-03-23T10:52:36;49.79;40.49;69.87;;
47923;Laerm;33688;44.354;9.228;2024-03-23T10:55:05;49.30;40.24;66.25;;
47923;Laerm;33688;44.354;9.228;2024-03-23T11:00:06;43.31;41.20;55.96;;
47923;Laerm;33688;44.354;9.228;2024-03-23T11:02:32;42.98;41.31;54.50;;
47923;Laerm;33688;44.354;9.228;2024-03-23T11:04:57;42.76;41.60;55.79;;
47923;Laerm;33688;44.354;9.228;2024-03-23T11:09:49;43.05;41.34;57.01;;
47923;Laerm;33688;44.354;9.228;2024-03-23T11:17:27;42.00;40.64;48.00;;
47923;Laerm;33688;44.354;9.228;2024-03-23T11:27:39;45.00;35.28;65.00;;
47923;Laerm;33688;44.354;9.228;2024-03-23T11:30:25;41.64;35.08;64.83;;
47923;Laerm;33688;44.354;9.228;2024-03-23T11:32:56;35.71;34.97;37.40;;
47923;Laerm;33688;44.354;9.228;2024-03-23T11:35:32;36.28;35.02;45.46;;
47923;Laerm;33688;44.354;9.228;2024-03-23T11:38:14;36.24;35.13;50.73;;
47923;Laerm;33688;44.354;9.228;2024-03-23T11:40:50;36.40;34.85;56.44;;
47923;Laerm;33688;44.354;9.228;2024-03-23T11:43:18;36.41;35.08;56.19;;
47923;Laerm;33688;44.354;9.228;2024-03-23T11:45:49;35.84;34.94;41.66;;
47923;Laerm;33688;44.354;9.228;2024-03-23T11:48:23;35.89;34.98;45.11;;
47923;Laerm;33688;44.354;9.228;2024-03-23T11:50:54;35.91;34.99;45.78;;
47923;Laerm;33688;44.354;9.228;2024-03-23T11:53:22;35.92;35.07;49.68;;
47923;Laerm;33688;44.354;9.228;2024-03-23T11:55:53;36.02;35.03;46.33;;
47923;Laerm;33688;44.354;9.228;2024-03-23T11:58:21;35.82;35.02;42.73;;
47923;Laerm;33688;44.354;9.228;2024-03-23T12:00:58;36.20;34.90;50.64;;
47923;Laerm;33688;44.354;9.228;2024-03-23T12:03:25;36.26;35.01;53.87;;
47923;Laerm;33688;44.354;9.228;2024-03-23T12:05:59;35.80;35.02;39.83;;
47923;Laerm;33688;44.354;9.228;2024-03-23T12:08:36;35.87;34.95;45.55;;
47923;Laerm;33688;44.354;9.228;2024-03-23T12:11:15;35.83;35.13;41.11;;
47923;Laerm;33688;44.354;9.228;2024-03-23T12:13:44;36.23;34.96;51.04;;
47923;Laerm;33688;44.354;9.228;2024-03-23T12:16:20;35.86;34.98;44.08;;
47923;Laerm;33688;44.354;9.228;2024-03-23T12:18:51;36.42;34.98;56.39;;
47923;Laerm;33688;44.354;9.228;2024-03-23T12:21:17;35.74;35.06;37.89;;
47923;Laerm;33688;44.354;9.228;2024-03-23T12:23:44;35.83;34.84;44.72;;
47923;Laerm;33688;44.354;9.228;2024-03-23T12:26:12;37.03;34.94;45.53;;
47923;Laerm;33688;44.354;9.228;2024-03-23T12:28:38;35.73;34.99;37.08;;
47923;Laerm;33688;44.354;9.228;2024-03-23T12:31:04;35.75;35.01;37.98;;
47923;Laerm;33688;44.354;9.228;2024-03-23T12:33:31;35.74;35.08;36.81;;
47923;Laerm;33688;44.354;9.228;2024-03-23T12:35:57;36.21;34.97;41.46;;
47923;Laerm;33688;44.354;9.228;2024-03-23T12:38:24;35.78;34.81;37.32;;
47923;Laerm;33688;44.354;9.228;2024-03-23T12:40:50;35.72;34.95;36.63;;
47923;Laerm;33688;44.354;9.228;2024-03-23T12:43:17;35.73;35.00;40.07;;
47923;Laerm;33688;44.354;9.228;2024-03-23T12:45:49;35.71;34.89;36.54;;
47923;Laerm;33688;44.354;9.228;2024-03-23T12:48:16;35.76;35.03;40.54;;
47923;Laerm;33688;44.354;9.228;2024-03-23T12:50:43;35.76;35.01;43.81;;
47923;Laerm;33688;44.354;9.228;2024-03-23T12:53:08;35.70;35.05;36.83;;
47923;Laerm;33688;44.354;9.228;2024-03-23T12:55:37;35.70;34.94;36.56;;
47923;Laerm;33688;44.354;9.228;2024-03-23T12:58:03;35.71;34.94;36.52;;
47923;Laerm;33688;44.354;9.228;2024-03-23T13:00:31;35.70;35.04;37.57;;
47923;Laerm;33688;44.354;9.228;2024-03-23T13:02:57;35.69;34.97;36.93;;
47923;Laerm;33688;44.354;9.228;2024-03-23T13:05:23;35.71;34.95;36.71;;
47923;Laerm;33688;44.354;9.228;2024-03-23T13:07:50;35.75;34.99;39.66;;
47923;Laerm;33688;44.354;9.228;2024-03-23T13:10:16;36.58;35.12;43.54;;
47923;Laerm;33688;44.354;9.228;2024-03-23T13:12:43;35.74;34.84;41.88;;
47923;Laerm;33688;44.354;9.228;2024-03-23T13:15:10;35.70;35.04;37.88;;
47923;Laerm;33688;44.354;9.228;2024-03-23T13:17:36;35.70;34.98;37.99;;
47923;Laerm;33688;44.354;9.228;2024-03-23T13:20:03;35.73;35.02;36.74;;
47923;Laerm;33688;44.354;9.228;2024-03-23T13:22:29;42.73;34.87;71.92;;
47923;Laerm;33688;44.354;9.228;2024-03-23T13:24:56;35.85;34.97;42.61;;
47923;Laerm;33688;44.354;9.228;2024-03-23T13:27:22;35.77;34.98;36.74;;
47923;Laerm;33688;44.354;9.228;2024-03-23T13:29:48;35.77;35.03;39.30;;
47923;Laerm;33688;44.354;9.228;2024-03-23T13:32:14;35.80;34.89;38.59;;
47923;Laerm;33688;44.354;9.228;2024-03-23T13:34:41;35.84;34.96;41.49;;
47923;Laerm;33688;44.354;9.228;2024-03-23T13:37:07;36.16;34.91;45.66;;
47923;Laerm;33688;44.354;9.228;2024-03-23T13:39:32;35.79;35.03;40.53;;
47923;Laerm;33688;44.354;9.228;2024-03-23T13:41:58;36.28;35.02;45.12;;
47923;Laerm;33688;44.354;9.228;2024-03-23T13:44:24;36.00;34.99;46.06;;
47923;Laerm;33688;44.354;9.228;2024-03-23T13:46:50;35.97;34.84;48.12;;
47923;Laerm;33688;44.354;9.228;2024-03-23T13:49:30;35.99;35.07;52.73;;
47923;Laerm;33688;44.354;9.228;2024-03-23T13:51:57;35.79;35.03;39.05;;
47923;Laerm;33688;44.354;9.228;2024-03-23T13:54:25;36.36;35.08;54.52;;
47923;Laerm;33688;44.354;9.228;2024-03-23T13:56:52;35.85;35.06;39.05;;
47923;Laerm;33688;44.354;9.228;2024-03-23T13:59:18;37.83;34.93;59.54;;
47923;Laerm;33688;44.354;9.228;2024-03-23T14:01:45;36.73;34.99;50.01;;
47923;Laerm;33688;44.354;9.228;2024-03-23T14:04:13;35.91;35.09;42.72;;
47923;Laerm;33688;44.354;9.228;2024-03-23T14:06:39;35.88;35.05;40.45;;
47923;Laerm;33688;44.354;9.228;2024-03-23T14:09:05;36.10;34.89;49.46;;
47923;Laerm;33688;44.354;9.228;2024-03-23T14:11:35;35.76;34.96;40.05;;
47923;Laerm;33688;44.354;9.228;2024-03-23T14:14:03;36.04;35.12;52.03;;
47923;Laerm;33688;44.354;9.228;2024-03-23T14:16:32;35.83;34.97;45.17;;
47923;Laerm;33688;44.354;9.228;2024-03-23T14:18:59;35.77;35.01;37.20;;
47923;Laerm;33688;44.354;9.228;2024-03-23T14:21:25;35.76;35.02;37.43;;
47923;Laerm;33688;44.354;9.228;2024-03-23T14:23:51;35.73;35.10;37.52;;
47923;Laerm;33688;44.354;9.228;2024-03-23T14:26:16;35.76;34.93;42.01;;
47923;Laerm;33688;44.354;9.228;2024-03-23T14:28:42;35.85;35.04;47.80;;
47923;Laerm;33688;44.354;9.228;2024-03-23T14:31:08;36.60;34.93;43.19;;
47923;Laerm;33688;44.354;9.228;2024-03-23T14:33:39;37.10;35.12;45.18;;
47923;Laerm;33688;44.354;9.228;2024-03-23T14:36:17;35.77;35.04;42.64;;
47923;Laerm;33688;44.354;9.228;2024-03-23T14:38:49;35.74;35.06;41.05;;
47923;Laerm;33688;44.354;9.228;2024-03-23T14:41:15;35.80;34.95;40.13;;
47923;Laerm;33688;44.354;9.228;2024-03-23T14:43:45;36.07;35.00;52.05;;
47923;Laerm;33688;44.354;9.228;2024-03-23T14:46:16;35.84;34.97;46.61;;
47923;Laerm;33688;44.354;9.228;2024-03-23T14:48:44;35.80;34.94;40.81;;
47923;Laerm;33688;44.354;9.228;2024-03-23T14:51:10;35.82;35.06;45.84;;
47923;Laerm;33688;44.354;9.228;2024-03-23T14:53:56;35.84;34.81;46.21;;
47923;Laerm;33688;44.354;9.228;2024-03-23T14:56:22;36.10;35.03;45.29;;
47923;Laerm;33688;44.354;9.228;2024-03-23T14:58:52;35.85;34.93;44.87;;